Time;durP1;ratioP1;P1;durP2;ratioP2;P2;SDS_P1;SDS_P2;PMS_P1;PMS_P2;Temp;Humidity;BMP_temperature;BMP_pressure;BME280_temperature;BME280_humidity;BME280_pressure;Samples;Min_cycle;Max_cycle;Signal;HPM_P1;HPM_P2
2023/01/07 00:01:07;;;;;;;2.13;0.90;;;11.80;99.90;;;;;;5079907;28;20412;-79
2023/01/07 00:03:33;;;;;;;1.30;0.70;;;11.80;99.90;;;;;;5091694;28;20414;-79
2023/01/07 00:06:00;;;;;;;1.30;0.80;;;11.80;99.90;;;;;;5103787;28;20464;-78
2023/01/07 00:08:29;;;;;;;1.30;1.00;;;11.70;99.90;;;;;;5093846;28;20405;-78
2023/01/07 00:10:55;;;;;;;1.10;0.80;;;11.60;99.90;;;;;;5093131;28;20476;-79
2023/01/07 00:13:20;;;;;;;1.40;0.83;;;11.60;99.90;;;;;;5084376;28;20436;-79
2023/01/07 00:15:46;;;;;;;1.20;0.80;;;11.60;99.90;;;;;;5080443;28;20208;-79
2023/01/07 00:18:11;;;;;;;1.37;0.97;;;11.60;99.90;;;;;;5084724;28;20174;-79
2023/01/07 00:20:37;;;;;;;1.50;0.90;;;11.50;99.90;;;;;;5108031;28;20174;-79
2023/01/07 00:23:02;;;;;;;1.40;0.83;;;11.50;99.90;;;;;;5075252;28;20309;-79
2023/01/07 00:25:28;;;;;;;1.40;0.97;;;11.40;99.90;;;;;;5089259;28;20226;-79
2023/01/07 00:27:54;;;;;;;2.50;0.90;;;11.40;99.90;;;;;;5085590;28;20181;-78
2023/01/07 00:30:19;;;;;;;1.63;0.90;;;11.40;99.90;;;;;;5083427;28;20212;-78
2023/01/07 00:35:25;;;;;;;1.43;0.90;;;11.40;99.90;;;;;;5092856;28;20162;-78
2023/01/07 00:37:53;;;;;;;1.53;0.83;;;11.40;99.90;;;;;;5091203;28;20924;-78
2023/01/07 00:40:19;;;;;;;1.50;0.83;;;11.40;99.90;;;;;;5075916;28;20169;-78
2023/01/07 00:42:54;;;;;;;1.20;0.70;;;11.40;99.90;;;;;;5107737;28;20495;-79
2023/01/07 00:45:24;;;;;;;1.20;0.70;;;11.30;99.90;;;;;;5075594;28;20462;-79
2023/01/07 00:47:53;;;;;;;1.30;0.90;;;11.30;99.90;;;;;;5099389;28;20776;-78
2023/01/07 00:50:24;;;;;;;1.30;0.90;;;11.30;99.90;;;;;;5098783;28;20792;-78
2023/01/07 00:52:50;;;;;;;1.37;0.80;;;11.20;99.90;;;;;;5099819;28;20419;-78
2023/01/07 00:55:16;;;;;;;1.70;0.80;;;11.20;99.90;;;;;;5098911;28;20974;-78
2023/01/07 00:57:42;;;;;;;1.37;0.87;;;11.20;99.90;;;;;;5111416;28;20205;-78
2023/01/07 01:00:10;;;;;;;1.53;0.83;;;11.20;99.90;;;;;;5093787;28;20169;-78
2023/01/07 01:02:36;;;;;;;1.83;0.80;;;11.20;99.90;;;;;;5094721;28;20507;-78
2023/01/07 01:05:02;;;;;;;1.60;0.83;;;11.20;99.90;;;;;;5094307;28;20435;-79
2023/01/07 01:07:28;;;;;;;1.20;0.70;;;11.20;99.90;;;;;;5097395;28;20661;-78
2023/01/07 01:09:53;;;;;;;1.47;0.83;;;11.20;99.90;;;;;;5098912;28;20454;-78
2023/01/07 01:12:19;;;;;;;2.50;1.63;;;11.20;99.90;;;;;;5098499;28;20173;-77
2023/01/07 01:14:44;;;;;;;1.30;0.80;;;11.10;99.90;;;;;;5086613;28;20186;-78
2023/01/07 01:17:10;;;;;;;1.67;0.90;;;11.20;99.90;;;;;;5074496;28;20237;-78
2023/01/07 01:19:35;;;;;;;1.40;0.87;;;11.20;99.90;;;;;;5073018;28;20291;-78
2023/01/07 01:22:01;;;;;;;1.20;0.73;;;11.10;99.90;;;;;;5081387;28;20181;-78
2023/01/07 01:24:26;;;;;;;1.43;1.00;;;11.10;99.90;;;;;;5078795;28;20174;-78
2023/01/07 01:26:52;;;;;;;1.40;0.80;;;11.00;99.90;;;;;;5085256;28;20258;-78
2023/01/07 01:29:17;;;;;;;1.10;0.60;;;10.90;99.90;;;;;;5082595;28;20169;-78
2023/01/07 01:31:43;;;;;;;1.67;1.00;;;10.90;99.90;;;;;;5094364;28;20651;-78
2023/01/07 01:34:08;;;;;;;1.77;0.80;;;10.80;99.90;;;;;;5109519;28;20161;-78
2023/01/07 01:36:34;;;;;;;1.60;0.80;;;10.80;99.90;;;;;;5109063;28;20890;-78
2023/01/07 01:39:00;;;;;;;1.47;0.90;;;10.80;99.90;;;;;;5100297;28;20654;-79
2023/01/07 01:41:25;;;;;;;1.40;0.90;;;10.70;99.90;;;;;;5072869;28;20182;-78
2023/01/07 01:43:51;;;;;;;1.30;0.70;;;10.80;99.90;;;;;;5072797;28;20689;-78
2023/01/07 01:46:26;;;;;;;1.20;0.70;;;10.70;99.90;;;;;;5077323;28;20226;-78
2023/01/07 01:49:00;;;;;;;1.67;0.90;;;10.70;99.90;;;;;;5082902;28;20176;-78
2023/01/07 01:51:33;;;;;;;1.30;0.80;;;10.70;99.90;;;;;;5091732;28;20488;-78
2023/01/07 01:54:01;;;;;;;2.90;1.00;;;10.70;99.90;;;;;;5072657;28;20408;-78
2023/01/07 01:56:31;;;;;;;1.50;0.73;;;10.70;99.90;;;;;;5082747;28;20456;-77
2023/01/07 01:59:01;;;;;;;1.60;0.90;;;10.60;99.90;;;;;;5089037;28;20444;-79
2023/01/07 02:01:26;;;;;;;1.40;1.00;;;10.60;99.90;;;;;;5113454;28;20416;-78
2023/01/07 02:03:52;;;;;;;1.17;0.70;;;10.60;99.90;;;;;;5104383;28;20446;-77
2023/01/07 02:06:23;;;;;;;1.43;0.73;;;10.60;99.90;;;;;;5092847;28;20193;-78
2023/01/07 02:08:49;;;;;;;2.40;1.00;;;10.40;99.90;;;;;;5093484;28;20412;-78
2023/01/07 02:11:43;;;;;;;1.50;0.70;;;10.40;99.90;;;;;;5089289;28;20431;-79
2023/01/07 02:14:23;;;;;;;1.63;0.87;;;10.30;99.90;;;;;;5072220;28;21106;-80
2023/01/07 02:17:01;;;;;;;1.40;0.80;;;10.20;99.90;;;;;;5072223;28;20459;-79
2023/01/07 02:19:41;;;;;;;1.13;0.80;;;10.20;99.90;;;;;;5097994;28;20457;-77
2023/01/07 02:22:30;;;;;;;1.00;0.60;;;10.10;99.90;;;;;;5107123;28;20418;-78
2023/01/07 02:25:26;;;;;;;2.43;0.90;;;10.10;99.90;;;;;;5093784;28;20444;-79
2023/01/07 02:28:04;;;;;;;1.37;0.90;;;10.10;99.90;;;;;;5094969;28;20415;-77
2023/01/07 02:30:36;;;;;;;1.60;0.80;;;10.10;99.90;;;;;;5088095;28;20446;-78
2023/01/07 02:33:07;;;;;;;1.30;0.80;;;10.10;99.90;;;;;;5083640;28;20400;-79
2023/01/07 02:36:00;;;;;;;1.40;0.80;;;10.00;99.90;;;;;;5091063;28;20516;-79
2023/01/07 02:38:30;;;;;;;1.30;0.87;;;9.90;99.90;;;;;;5099350;28;20416;-77
2023/01/07 02:41:28;;;;;;;1.10;0.70;;;10.00;99.90;;;;;;5080992;28;20920;-79
2023/01/07 02:44:23;;;;;;;5.43;1.20;;;9.90;99.90;;;;;;5112499;28;20444;-79
2023/01/07 02:47:07;;;;;;;1.20;0.70;;;9.90;99.90;;;;;;5080024;28;20446;-77
2023/01/07 02:49:34;;;;;;;1.40;0.80;;;9.90;99.90;;;;;;5078473;28;20455;-78
2023/01/07 02:52:16;;;;;;;2.90;2.50;;;9.90;99.90;;;;;;5079605;28;20468;-78
2023/01/07 02:54:42;;;;;;;1.40;0.97;;;9.90;99.90;;;;;;5078041;28;20419;-80
2023/01/07 02:57:40;;;;;;;1.40;0.80;;;9.90;99.90;;;;;;5078983;28;20554;-78
2023/01/07 03:00:13;;;;;;;1.43;1.03;;;9.90;99.90;;;;;;5078565;28;20423;-78
2023/01/07 03:03:07;;;;;;;1.40;1.00;;;9.90;99.90;;;;;;5089632;28;20396;-77
2023/01/07 03:05:35;;;;;;;1.10;0.70;;;9.90;99.90;;;;;;5088883;28;20396;-78
2023/01/07 03:08:16;;;;;;;3.37;1.07;;;10.00;99.90;;;;;;5082300;28;20434;-78
2023/01/07 03:10:55;;;;;;;1.67;1.00;;;10.00;99.90;;;;;;5080771;28;20415;-80
2023/01/07 03:13:26;;;;;;;1.20;0.90;;;10.00;99.90;;;;;;5078415;28;20441;-79
2023/01/07 03:16:04;;;;;;;1.20;0.90;;;10.00;99.90;;;;;;5078800;28;20483;-78
2023/01/07 03:18:33;;;;;;;1.50;1.10;;;10.10;99.90;;;;;;5086447;28;20900;-78
2023/01/07 03:21:07;;;;;;;1.63;1.00;;;10.10;99.90;;;;;;5086580;28;20408;-79
2023/01/07 03:23:38;;;;;;;1.50;0.83;;;10.10;99.90;;;;;;5083375;28;20411;-79
2023/01/07 03:26:06;;;;;;;1.40;0.87;;;10.10;99.90;;;;;;5099977;28;20498;-78
2023/01/07 03:28:36;;;;;;;1.40;0.83;;;10.10;99.90;;;;;;5099554;28;20429;-78
2023/01/07 03:31:03;;;;;;;2.53;0.87;;;10.10;99.90;;;;;;5096019;28;20400;-79
2023/01/07 03:33:37;;;;;;;1.30;0.90;;;10.10;99.90;;;;;;5095655;28;20861;-77
2023/01/07 03:36:05;;;;;;;1.63;1.20;;;10.10;99.90;;;;;;5096438;28;20972;-80
2023/01/07 03:38:32;;;;;;;1.23;0.77;;;10.00;99.90;;;;;;5096181;28;20403;-77
2023/01/07 03:40:58;;;;;;;1.67;0.90;;;10.10;99.90;;;;;;5095932;28;20450;-78
2023/01/07 03:43:23;;;;;;;1.40;0.90;;;10.10;99.90;;;;;;5096119;28;20399;-79
2023/01/07 03:45:50;;;;;;;1.40;0.90;;;10.10;99.90;;;;;;5097309;28;20208;-78
2023/01/07 03:48:16;;;;;;;1.97;0.90;;;10.10;99.90;;;;;;5085150;28;20185;-78
2023/01/07 03:50:41;;;;;;;2.03;1.30;;;10.10;99.90;;;;;;5091132;28;20420;-78
2023/01/07 03:53:07;;;;;;;1.60;0.80;;;10.10;99.90;;;;;;5078311;28;20162;-79
2023/01/07 03:55:33;;;;;;;2.30;1.10;;;10.20;99.90;;;;;;5078763;28;20166;-79
2023/01/07 03:57:58;;;;;;;1.60;1.23;;;10.20;99.90;;;;;;5077012;28;20163;-78
2023/01/07 04:00:24;;;;;;;4.03;1.03;;;10.30;99.90;;;;;;5078970;28;20162;-78
2023/01/07 04:02:50;;;;;;;1.60;1.07;;;10.30;99.90;;;;;;5112393;28;20639;-78
2023/01/07 04:05:15;;;;;;;2.00;0.90;;;10.40;99.90;;;;;;5083257;28;20177;-79
2023/01/07 04:07:41;;;;;;;2.20;1.53;;;10.50;99.90;;;;;;5105777;28;20200;-77
2023/01/07 04:10:07;;;;;;;1.40;1.17;;;10.60;99.90;;;;;;5106623;28;20193;-79
2023/01/07 04:12:33;;;;;;;8.37;1.40;;;10.60;99.90;;;;;;5105142;28;20218;-77
2023/01/07 04:14:59;;;;;;;1.83;1.10;;;10.60;99.90;;;;;;5106802;28;20408;-78
2023/01/07 04:17:25;;;;;;;1.50;1.17;;;10.70;99.90;;;;;;5104445;28;20202;-77
2023/01/07 04:19:50;;;;;;;1.87;1.17;;;10.80;99.90;;;;;;5094552;28;20947;-78
2023/01/07 04:22:16;;;;;;;2.80;1.00;;;10.80;99.90;;;;;;5077993;28;20491;-78
2023/01/07 04:24:41;;;;;;;1.50;1.30;;;10.80;99.90;;;;;;5079149;28;20250;-78
2023/01/07 04:27:07;;;;;;;2.40;1.17;;;10.80;99.90;;;;;;5078464;28;20194;-78
2023/01/07 04:29:33;;;;;;;4.87;1.10;;;10.80;99.90;;;;;;5078986;28;20196;-78
2023/01/07 04:31:59;;;;;;;1.60;1.10;;;10.90;99.90;;;;;;5097637;28;20174;-78
2023/01/07 04:34:24;;;;;;;2.23;1.10;;;11.00;99.90;;;;;;5098775;28;20169;-79
2023/01/07 04:36:50;;;;;;;1.67;1.20;;;11.00;99.90;;;;;;5098655;28;20213;-78
2023/01/07 04:39:16;;;;;;;5.03;1.60;;;11.00;99.90;;;;;;5099453;28;20161;-78
2023/01/07 04:41:42;;;;;;;2.43;1.10;;;11.00;99.90;;;;;;5096124;28;20158;-78
2023/01/07 04:44:08;;;;;;;1.97;1.30;;;11.00;99.90;;;;;;5077404;28;20968;-78
2023/01/07 04:46:33;;;;;;;1.70;1.07;;;11.00;99.90;;;;;;5077343;28;20216;-78
2023/01/07 04:48:59;;;;;;;3.40;1.47;;;11.10;99.90;;;;;;5077052;28;20197;-78
2023/01/07 04:51:24;;;;;;;10.00;1.63;;;11.10;99.90;;;;;;5076428;28;20170;-78
2023/01/07 04:53:50;;;;;;;3.10;1.30;;;11.00;99.90;;;;;;5080773;28;20268;-78
2023/01/07 04:56:15;;;;;;;2.43;1.30;;;11.10;99.90;;;;;;5079460;28;20230;-77
2023/01/07 04:58:41;;;;;;;1.40;0.93;;;11.10;99.90;;;;;;5080185;28;20651;-78
2023/01/07 05:01:07;;;;;;;1.77;1.27;;;11.10;99.90;;;;;;5079238;28;20170;-77
2023/01/07 05:03:35;;;;;;;1.40;1.20;;;11.10;99.90;;;;;;5078129;28;20524;-77
2023/01/07 05:06:02;;;;;;;3.00;1.30;;;11.10;99.90;;;;;;5077575;28;20435;-78
2023/01/07 05:08:28;;;;;;;1.30;0.80;;;11.20;99.90;;;;;;5080070;28;20405;-78
2023/01/07 05:10:53;;;;;;;2.00;1.30;;;11.20;99.90;;;;;;5079968;28;20400;-78
2023/01/07 05:13:21;;;;;;;1.60;1.10;;;11.20;99.90;;;;;;5095323;28;20208;-78
2023/01/07 05:15:47;;;;;;;2.03;1.10;;;11.30;99.90;;;;;;5099223;28;20792;-77
2023/01/07 05:18:12;;;;;;;3.63;0.90;;;11.20;99.90;;;;;;5099639;28;20427;-78
2023/01/07 05:20:38;;;;;;;3.53;1.03;;;11.30;99.90;;;;;;5099701;28;20403;-77
2023/01/07 05:23:04;;;;;;;4.03;1.20;;;11.40;99.90;;;;;;5095679;28;20265;-78
2023/01/07 05:25:31;;;;;;;1.47;1.10;;;11.30;99.90;;;;;;5075306;28;20165;-80
2023/01/07 05:27:57;;;;;;;1.60;0.97;;;11.20;99.90;;;;;;5073806;28;20396;-78
2023/01/07 05:30:23;;;;;;;1.60;1.00;;;11.30;99.90;;;;;;5079418;28;20407;-79
2023/01/07 05:32:48;;;;;;;2.57;1.00;;;11.30;99.90;;;;;;5077388;28;20238;-79
2023/01/07 05:35:14;;;;;;;1.27;0.90;;;11.30;99.90;;;;;;5104833;28;20169;-79
2023/01/07 05:37:39;;;;;;;1.80;1.10;;;11.30;99.90;;;;;;5111671;28;20231;-78
2023/01/07 05:40:06;;;;;;;7.37;1.57;;;11.40;99.90;;;;;;5112415;28;20173;-78
2023/01/07 05:42:32;;;;;;;1.50;1.20;;;11.40;99.90;;;;;;5111847;28;20173;-77
2023/01/07 05:44:57;;;;;;;1.83;0.90;;;11.40;99.90;;;;;;5111266;28;20465;-79
2023/01/07 05:47:23;;;;;;;2.00;1.00;;;11.40;99.90;;;;;;5106925;28;20194;-77
2023/01/07 05:49:48;;;;;;;1.43;0.90;;;11.40;99.90;;;;;;5090461;28;20205;-78
2023/01/07 05:52:14;;;;;;;1.20;0.80;;;11.40;99.90;;;;;;5090128;28;20338;-78
2023/01/07 05:54:40;;;;;;;1.40;1.00;;;11.30;99.90;;;;;;5089517;28;20185;-79
2023/01/07 05:57:05;;;;;;;2.00;1.60;;;11.20;99.90;;;;;;5090513;28;20257;-78
2023/01/07 05:59:33;;;;;;;1.67;1.03;;;11.20;99.90;;;;;;5104230;28;20189;-78
2023/01/07 06:01:59;;;;;;;2.40;1.30;;;11.20;99.90;;;;;;5077098;28;20177;-78
2023/01/07 06:04:25;;;;;;;2.03;1.47;;;11.10;99.90;;;;;;5072861;28;20777;-79
2023/01/07 06:06:50;;;;;;;1.60;1.10;;;11.00;99.90;;;;;;5090185;28;20432;-78
2023/01/07 06:09:16;;;;;;;2.53;1.37;;;10.90;99.90;;;;;;5090769;28;20175;-78
2023/01/07 06:11:41;;;;;;;1.93;1.20;;;10.90;99.90;;;;;;5091158;28;20269;-77
2023/01/07 06:14:07;;;;;;;1.53;0.97;;;10.80;99.90;;;;;;5091410;28;20623;-79
2023/01/07 06:16:32;;;;;;;2.20;1.60;;;10.80;99.90;;;;;;5090356;28;20225;-78
2023/01/07 06:18:58;;;;;;;1.30;1.00;;;10.80;99.90;;;;;;5091105;28;20187;-77
2023/01/07 06:21:23;;;;;;;1.80;1.20;;;10.80;99.90;;;;;;5090782;28;20232;-79
2023/01/07 06:23:49;;;;;;;1.40;1.20;;;10.70;99.90;;;;;;5091978;28;20178;-78
2023/01/07 06:26:14;;;;;;;1.50;1.30;;;10.70;99.90;;;;;;5089927;28;20193;-77
2023/01/07 06:28:40;;;;;;;1.77;1.60;;;10.80;99.90;;;;;;5091116;28;20233;-77
2023/01/07 06:31:08;;;;;;;2.70;1.30;;;10.70;99.90;;;;;;5090079;28;20162;-79
2023/01/07 06:33:33;;;;;;;3.53;1.70;;;10.80;99.90;;;;;;5090935;28;20174;-78
2023/01/07 06:35:59;;;;;;;2.40;1.53;;;10.80;99.90;;;;;;5089878;28;20485;-78
2023/01/07 06:38:24;;;;;;;5.53;1.30;;;10.90;99.90;;;;;;5089970;28;20185;-77
2023/01/07 06:40:50;;;;;;;2.40;1.70;;;10.90;99.90;;;;;;5090349;28;20201;-79
2023/01/07 06:43:15;;;;;;;1.70;1.00;;;11.00;99.90;;;;;;5090734;28;20188;-79
2023/01/07 06:45:40;;;;;;;1.70;1.40;;;11.00;99.90;;;;;;5089935;28;20182;-77
2023/01/07 06:48:06;;;;;;;2.70;1.73;;;11.10;99.90;;;;;;5090013;28;20185;-78
2023/01/07 06:50:32;;;;;;;1.83;1.43;;;11.10;99.90;;;;;;5089234;28;20625;-78
2023/01/07 06:52:57;;;;;;;1.97;1.30;;;11.20;99.90;;;;;;5090701;28;20196;-77
2023/01/07 06:55:23;;;;;;;2.43;1.73;;;11.20;99.90;;;;;;5088090;28;20178;-78
2023/01/07 06:57:48;;;;;;;1.40;1.10;;;11.20;99.90;;;;;;5085722;28;20194;-78
2023/01/07 07:00:14;;;;;;;2.20;1.20;;;11.20;99.90;;;;;;5079805;28;20182;-79
2023/01/07 07:02:40;;;;;;;2.10;1.30;;;11.10;99.90;;;;;;5084399;28;20161;-78
2023/01/07 07:05:05;;;;;;;2.10;1.10;;;11.10;99.90;;;;;;5090383;28;20162;-77
2023/01/07 07:07:31;;;;;;;1.63;1.30;;;11.10;99.90;;;;;;5093749;28;20198;-77
2023/01/07 07:09:57;;;;;;;1.40;1.10;;;11.20;99.90;;;;;;5093125;28;20590;-77
2023/01/07 07:12:22;;;;;;;2.00;1.60;;;11.20;99.90;;;;;;5100696;28;20423;-79
2023/01/07 07:14:48;;;;;;;2.23;2.03;;;11.20;99.90;;;;;;5114156;28;20188;-78
2023/01/07 07:17:14;;;;;;;1.50;1.30;;;11.20;99.90;;;;;;5114374;28;20205;-77
2023/01/07 07:19:39;;;;;;;1.87;1.43;;;11.10;99.90;;;;;;5114202;28;20183;-79
2023/01/07 07:22:05;;;;;;;1.50;1.10;;;11.20;99.90;;;;;;5103226;28;20186;-80
2023/01/07 07:24:30;;;;;;;2.00;1.47;;;11.20;99.90;;;;;;5101414;28;20190;-78
2023/01/07 07:26:56;;;;;;;2.57;1.97;;;11.20;99.90;;;;;;5094613;28;20205;-77
2023/01/07 07:29:21;;;;;;;3.10;2.63;;;11.20;99.90;;;;;;5094713;28;20179;-78
2023/01/07 07:31:47;;;;;;;4.53;3.20;;;11.20;99.90;;;;;;5093622;28;20234;-78
2023/01/07 07:34:12;;;;;;;12.43;3.20;;;11.30;99.90;;;;;;5094715;28;20166;-76
2023/01/07 07:36:38;;;;;;;5.73;2.93;;;11.30;99.90;;;;;;5094356;28;20698;-77
2023/01/07 07:39:04;;;;;;;3.30;2.37;;;11.30;99.90;;;;;;5095013;28;20162;-78
2023/01/07 07:41:30;;;;;;;3.13;2.53;;;11.30;99.90;;;;;;5094211;28;20272;-79
2023/01/07 07:43:55;;;;;;;2.07;1.50;;;11.30;99.90;;;;;;5102822;28;20424;-78
2023/01/07 07:46:21;;;;;;;1.77;1.37;;;11.40;99.90;;;;;;5113137;28;20562;-78
2023/01/07 07:48:50;;;;;;;2.97;2.27;;;11.40;99.90;;;;;;5113351;28;20184;-77
2023/01/07 07:51:15;;;;;;;2.10;1.30;;;11.30;99.90;;;;;;5112773;28;20174;-79
2023/01/07 07:53:41;;;;;;;3.20;1.70;;;11.30;99.90;;;;;;5109028;28;20431;-78
2023/01/07 07:56:08;;;;;;;1.43;0.97;;;11.30;99.90;;;;;;5093092;28;20201;-78
2023/01/07 07:58:33;;;;;;;1.80;1.40;;;11.30;99.90;;;;;;5092862;28;20265;-78
2023/01/07 08:00:59;;;;;;;3.43;1.40;;;11.30;99.90;;;;;;5089307;28;20408;-78
2023/01/07 08:03:24;;;;;;;3.20;0.90;;;11.30;99.90;;;;;;5094608;28;20204;-78
2023/01/07 08:05:50;;;;;;;2.53;1.60;;;11.20;99.90;;;;;;5101087;28;20194;-78
2023/01/07 08:08:15;;;;;;;2.63;1.40;;;11.30;99.90;;;;;;5115744;28;20176;-78
2023/01/07 08:10:41;;;;;;;1.47;1.03;;;11.30;99.90;;;;;;5114749;28;20204;-79
2023/01/07 08:13:08;;;;;;;2.43;1.30;;;11.30;99.90;;;;;;5114357;28;20435;-79
2023/01/07 08:15:34;;;;;;;1.83;1.60;;;11.30;99.90;;;;;;5114374;28;20315;-77
2023/01/07 08:18:03;;;;;;;2.33;1.57;;;11.10;99.90;;;;;;5109669;28;20416;-78
2023/01/07 08:20:28;;;;;;;2.27;1.70;;;11.10;99.90;;;;;;5093650;28;20162;-77
2023/01/07 08:22:58;;;;;;;1.50;1.10;;;11.00;99.90;;;;;;5093969;28;20438;-78
2023/01/07 08:25:23;;;;;;;2.57;1.53;;;11.00;99.90;;;;;;5093185;28;20163;-78
2023/01/07 08:27:49;;;;;;;2.10;1.40;;;11.00;99.90;;;;;;5093086;28;20415;-79
2023/01/07 08:30:15;;;;;;;2.47;2.07;;;11.00;99.90;;;;;;5100429;28;20154;-78
2023/01/07 08:32:41;;;;;;;1.77;1.50;;;10.90;99.90;;;;;;5111683;28;20256;-79
2023/01/07 08:35:07;;;;;;;2.80;1.87;;;11.00;99.90;;;;;;5110032;28;20411;-78
2023/01/07 08:37:33;;;;;;;2.20;1.90;;;11.00;99.90;;;;;;5112163;28;20189;-78
2023/01/07 08:39:59;;;;;;;1.70;1.40;;;11.00;99.90;;;;;;5111352;28;20426;-79
2023/01/07 08:42:24;;;;;;;2.07;1.53;;;11.00;99.90;;;;;;5106269;28;20184;-78
2023/01/07 08:44:50;;;;;;;3.70;2.90;;;11.00;99.90;;;;;;5111063;28;20186;-78
2023/01/07 08:47:15;;;;;;;2.83;1.47;;;11.00;99.90;;;;;;5111508;28;20209;-79
2023/01/07 08:49:41;;;;;;;3.30;1.50;;;11.10;99.90;;;;;;5111417;28;20169;-78
2023/01/07 08:52:06;;;;;;;3.33;1.87;;;11.10;99.90;;;;;;5108955;28;20299;-77
2023/01/07 08:54:32;;;;;;;1.87;1.40;;;11.20;99.90;;;;;;5091343;28;20640;-79
2023/01/07 08:56:57;;;;;;;2.20;1.60;;;11.40;99.90;;;;;;5092063;28;20210;-79
2023/01/07 08:59:23;;;;;;;1.67;1.10;;;11.40;99.90;;;;;;5091477;28;20181;-79
2023/01/07 09:01:48;;;;;;;2.00;1.50;;;11.60;99.90;;;;;;5091896;28;20174;-78
2023/01/07 09:04:14;;;;;;;14.73;1.77;;;12.00;99.90;;;;;;5094484;28;20161;-76
2023/01/07 09:06:39;;;;;;;2.10;1.20;;;12.10;99.90;;;;;;5104943;28;20194;-78
2023/01/07 09:09:05;;;;;;;3.13;1.43;;;12.20;99.90;;;;;;5091961;28;20178;-77
2023/01/07 09:11:31;;;;;;;2.07;1.33;;;12.30;99.90;;;;;;5090837;28;20242;-79
2023/01/07 09:13:56;;;;;;;1.57;1.00;;;12.30;99.90;;;;;;5093232;28;20197;-78
2023/01/07 09:16:22;;;;;;;2.43;1.53;;;12.50;99.90;;;;;;5092037;28;20261;-79
2023/01/07 09:18:48;;;;;;;3.97;1.40;;;12.50;99.90;;;;;;5092282;28;20210;-79
2023/01/07 09:21:13;;;;;;;1.60;1.30;;;12.70;99.90;;;;;;5092166;28;20269;-78
2023/01/07 09:23:39;;;;;;;1.70;1.20;;;13.00;99.90;;;;;;5092150;28;20408;-78
2023/01/07 09:26:05;;;;;;;2.10;1.40;;;13.50;99.90;;;;;;5092089;28;20266;-79
2023/01/07 09:28:31;;;;;;;1.63;1.20;;;14.70;99.90;;;;;;5091665;28;20173;-77
2023/01/07 09:30:56;;;;;;;2.00;1.40;;;16.10;99.90;;;;;;5099224;28;20416;-78
2023/01/07 09:33:22;;;;;;;2.20;1.80;;;17.30;99.90;;;;;;5090298;28;20174;-78
2023/01/07 09:35:47;;;;;;;1.73;1.10;;;18.20;99.90;;;;;;5091305;28;20637;-78
2023/01/07 09:38:13;;;;;;;2.57;1.30;;;19.00;99.90;;;;;;5091888;28;20245;-79
2023/01/07 09:40:40;;;;;;;2.93;1.17;;;19.60;99.90;;;;;;5091034;28;20174;-78
2023/01/07 09:43:26;;;;;;;1.80;1.30;;;19.60;99.90;;;;;;5091319;28;20177;-78
2023/01/07 09:45:54;;;;;;;1.83;1.27;;;19.70;99.90;;;;;;5091551;28;20420;-78
2023/01/07 09:48:27;;;;;;;1.43;0.90;;;19.70;99.90;;;;;;5091251;28;20462;-78
2023/01/07 09:51:21;;;;;;;1.87;1.43;;;19.90;99.90;;;;;;5091994;28;20404;-78
2023/01/07 09:53:58;;;;;;;2.53;1.47;;;20.40;98.00;;;;;;5092010;28;20442;-78
2023/01/07 09:56:29;;;;;;;2.10;1.40;;;20.20;94.90;;;;;;5102899;28;20460;-79
2023/01/07 09:58:56;;;;;;;3.43;1.20;;;20.40;94.20;;;;;;5091141;28;20408;-78
2023/01/07 10:01:23;;;;;;;3.80;1.80;;;20.30;94.00;;;;;;5092741;28;20427;-79
2023/01/07 10:04:01;;;;;;;1.80;1.47;;;20.20;93.00;;;;;;5098023;28;20421;-78
2023/01/07 10:06:43;;;;;;;2.20;1.40;;;20.00;92.80;;;;;;5089924;28;20443;-78
2023/01/07 10:09:27;;;;;;;3.50;1.53;;;20.20;93.20;;;;;;5091005;28;20443;-78
2023/01/07 10:12:12;;;;;;;1.70;1.50;;;20.50;92.40;;;;;;5107806;28;20428;-79
2023/01/07 10:14:47;;;;;;;1.93;1.50;;;20.80;91.50;;;;;;5090347;28;20434;-79
2023/01/07 10:17:28;;;;;;;2.07;1.70;;;21.20;90.70;;;;;;5091570;28;20452;-78
2023/01/07 10:20:18;;;;;;;1.63;1.53;;;21.70;86.70;;;;;;5090834;28;20408;-79
2023/01/07 10:22:43;;;;;;;2.03;1.60;;;22.50;84.50;;;;;;5125268;28;20434;-78
2023/01/07 10:25:25;;;;;;;2.07;1.87;;;22.90;80.10;;;;;;5105998;28;20420;-78
2023/01/07 10:27:53;;;;;;;2.83;2.27;;;23.20;74.50;;;;;;5109992;28;20181;-79
2023/01/07 10:30:24;;;;;;;2.97;2.13;;;23.40;73.50;;;;;;5111747;28;20407;-78
2023/01/07 10:32:55;;;;;;;2.43;1.70;;;23.20;70.60;;;;;;5110269;28;20410;-77
2023/01/07 10:35:23;;;;;;;2.90;1.97;;;22.50;69.10;;;;;;5111103;28;20392;-79
2023/01/07 10:37:48;;;;;;;2.57;1.57;;;21.90;70.70;;;;;;5106945;28;20520;-78
2023/01/07 10:40:35;;;;;;;2.00;1.80;;;21.10;72.10;;;;;;5092782;28;20423;-79
2023/01/07 10:43:15;;;;;;;1.90;1.70;;;20.00;74.00;;;;;;5095981;28;20174;-79
2023/01/07 10:45:46;;;;;;;2.60;1.83;;;19.10;77.20;;;;;;5094163;28;20439;-78
2023/01/07 10:48:35;;;;;;;5.50;2.40;;;17.70;84.10;;;;;;5096364;28;20415;-77
2023/01/07 10:51:04;;;;;;;3.90;3.30;;;16.70;93.20;;;;;;5114667;28;20416;-78
2023/01/07 10:53:48;;;;;;;2.60;1.93;;;16.10;99.90;;;;;;5113339;28;20423;-77
2023/01/07 10:56:48;;;;;;;3.23;2.20;;;15.50;99.90;;;;;;5114642;28;20463;-78
2023/01/07 10:59:17;;;;;;;5.53;2.97;;;15.10;99.90;;;;;;5109426;28;20503;-79
2023/01/07 11:01:49;;;;;;;3.47;2.00;;;14.80;99.90;;;;;;5110499;28;20420;-78
2023/01/07 11:04:16;;;;;;;2.23;1.90;;;15.20;99.90;;;;;;5093608;28;20431;-77
2023/01/07 11:06:58;;;;;;;1.80;1.60;;;15.20;99.90;;;;;;5094148;28;20432;-78
2023/01/07 11:09:26;;;;;;;2.60;1.90;;;14.90;99.90;;;;;;5092749;28;20450;-78
2023/01/07 11:11:54;;;;;;;2.20;1.33;;;14.80;99.90;;;;;;5094560;28;20451;-78
2023/01/07 11:14:33;;;;;;;2.13;1.43;;;14.60;99.90;;;;;;5109252;28;20807;-79
2023/01/07 11:17:26;;;;;;;3.00;1.47;;;14.70;99.90;;;;;;5111952;28;20509;-78
2023/01/07 11:19:51;;;;;;;2.03;1.20;;;14.60;99.90;;;;;;5112936;28;20441;-79
2023/01/07 11:22:26;;;;;;;2.53;1.20;;;14.50;99.90;;;;;;5111432;28;20457;-78
2023/01/07 11:24:52;;;;;;;1.60;1.17;;;14.40;99.90;;;;;;5104344;28;20166;-79
2023/01/07 11:27:20;;;;;;;1.73;1.20;;;14.50;99.90;;;;;;5097627;28;20443;-79
2023/01/07 11:29:57;;;;;;;2.07;1.17;;;14.50;99.90;;;;;;5097542;28;20401;-78
2023/01/07 11:32:27;;;;;;;1.73;1.07;;;14.50;99.90;;;;;;5116841;28;20400;-79
2023/01/07 11:34:58;;;;;;;1.30;0.90;;;14.40;99.90;;;;;;5098750;28;20436;-79
2023/01/07 11:37:38;;;;;;;1.70;1.10;;;14.40;99.90;;;;;;5117659;28;20459;-79
2023/01/07 11:40:13;;;;;;;1.60;1.23;;;14.30;99.90;;;;;;5110761;28;20418;-79
2023/01/07 11:43:21;;;;;;;1.20;0.93;;;14.00;99.90;;;;;;5111649;28;20411;-79
2023/01/07 11:45:55;;;;;;;1.20;0.80;;;13.90;99.90;;;;;;5109019;28;20889;-78
2023/01/07 11:48:35;;;;;;;1.87;0.80;;;14.00;99.90;;;;;;5111623;28;20415;-78
2023/01/07 11:51:05;;;;;;;1.30;1.00;;;15.20;99.90;;;;;;5111549;28;20442;-79
2023/01/07 11:53:49;;;;;;;2.20;1.30;;;16.00;99.90;;;;;;5113585;28;20403;-79
2023/01/07 11:56:26;;;;;;;1.30;1.00;;;18.40;99.90;;;;;;5112478;28;20873;-78
2023/01/07 11:59:10;;;;;;;1.50;1.03;;;20.70;91.30;;;;;;5107276;28;20441;-77
2023/01/07 12:01:44;;;;;;;2.57;1.10;;;22.40;71.60;;;;;;5090890;28;20417;-77
2023/01/07 12:04:19;;;;;;;2.13;1.50;;;23.10;66.70;;;;;;5102025;28;20420;-77
2023/01/07 12:06:47;;;;;;;2.43;1.50;;;22.80;59.30;;;;;;5112720;28;20431;-78
2023/01/07 12:09:29;;;;;;;1.50;1.00;;;21.90;59.00;;;;;;5107298;28;20499;-78
2023/01/07 12:11:58;;;;;;;1.53;1.00;;;21.10;60.20;;;;;;5101305;28;20435;-78
2023/01/07 12:14:27;;;;;;;1.43;1.10;;;20.10;59.90;;;;;;5087603;28;20436;-78
2023/01/07 12:16:54;;;;;;;2.43;1.20;;;18.90;61.80;;;;;;5079410;28;21044;-77
2023/01/07 12:19:45;;;;;;;1.20;1.00;;;18.10;65.80;;;;;;5077319;28;20477;-77
2023/01/07 12:22:48;;;;;;;3.00;1.40;;;17.20;68.70;;;;;;5078154;28;20400;-78
2023/01/07 12:25:55;;;;;;;1.67;1.23;;;16.20;75.00;;;;;;5077704;28;20438;-78
2023/01/07 12:28:49;;;;;;;1.63;1.23;;;17.10;81.70;;;;;;5029787;28;20516;-77
2023/01/07 12:31:44;;;;;;;7.40;1.53;;;17.60;80.70;;;;;;5079029;28;20409;-77
2023/01/07 12:34:47;;;;;;;1.90;1.27;;;17.70;75.80;;;;;;5075453;28;20408;-78
2023/01/07 12:37:31;;;;;;;2.80;1.40;;;17.40;77.50;;;;;;5077598;28;20452;-78
2023/01/07 12:40:41;;;;;;;1.77;1.17;;;17.70;79.10;;;;;;5098289;28;20408;-78
2023/01/07 12:43:23;;;;;;;1.30;1.00;;;18.50;76.60;;;;;;5094444;28;21513;-78
2023/01/07 12:45:54;;;;;;;1.80;1.20;;;19.50;71.40;;;;;;5098653;28;20457;-78
2023/01/07 12:48:27;;;;;;;1.80;1.27;;;19.80;67.20;;;;;;5096588;28;20399;-78
2023/01/07 12:50:56;;;;;;;1.77;1.43;;;18.70;66.50;;;;;;5093188;28;20510;-80
2023/01/07 12:53:37;;;;;;;1.90;1.30;;;17.90;70.20;;;;;;5094885;28;20772;-77
2023/01/07 12:56:12;;;;;;;1.63;1.33;;;17.30;72.90;;;;;;5093291;28;20451;-78
2023/01/07 12:58:59;;;;;;;6.43;1.70;;;16.80;76.00;;;;;;5093124;28;20448;-79
2023/01/07 13:01:33;;;;;;;1.60;1.23;;;16.10;78.80;;;;;;5093478;28;20482;-78
2023/01/07 13:04:02;;;;;;;2.90;1.33;;;15.80;83.70;;;;;;5092605;28;20407;-79
2023/01/07 13:06:43;;;;;;;2.13;1.40;;;15.40;88.80;;;;;;5092946;28;20502;-78